createdAt,value
2023-03-08T00:00:38.802Z,94704.50
2023-03-08T00:01:40.859Z,94715.44
2023-03-08T00:02:45.562Z,94703.47
2023-03-08T00:03:47.776Z,94706.03
2023-03-08T00:04:52.495Z,94709.63
2023-03-08T00:05:54.796Z,94712.44
2023-03-08T00:06:59.376Z,94717.63
2023-03-08T00:08:01.361Z,94716.09
2023-03-08T00:09:06.245Z,94710.91
2023-03-08T00:10:10.378Z,94716.75
2023-03-08T00:11:18.369Z,94713.53
2023-03-08T00:12:20.470Z,94714.41
2023-03-08T00:13:25.118Z,94728.56
2023-03-08T00:14:29.797Z,94720.91
2023-03-08T00:15:31.836Z,94715.66
2023-03-08T00:16:36.453Z,94723.13
2023-03-08T00:17:39.172Z,94722.28
2023-03-08T00:18:44.331Z,94723.84
2023-03-08T00:19:46.591Z,94722.78
2023-03-08T00:20:51.213Z,94723.84
2023-03-08T00:21:53.616Z,94724.72
2023-03-08T00:22:58.241Z,94749.34
2023-03-08T00:24:00.293Z,94715.13
2023-03-08T00:25:04.975Z,94723.72
2023-03-08T00:26:07.441Z,94718.63
2023-03-08T00:27:14.645Z,94717.94
2023-03-08T00:28:16.636Z,94721.38
2023-03-08T00:29:21.321Z,94723.84
2023-03-08T00:30:23.405Z,94719.53
2023-03-08T00:31:28.120Z,94719.59
2023-03-08T00:32:30.517Z,94720.38
2023-03-08T00:33:35.761Z,94731.38
2023-03-08T00:34:37.731Z,94723.72
2023-03-08T00:35:42.649Z,94725.63
2023-03-08T00:36:44.900Z,94725.75
2023-03-08T00:37:49.579Z,94729.97
2023-03-08T00:38:52.698Z,94721.66
2023-03-08T00:39:57.708Z,94716.59
2023-03-08T00:41:00.009Z,94724.34
2023-03-08T00:42:04.889Z,94723.31
2023-03-08T00:43:09.504Z,94721.59
2023-03-08T00:44:14.333Z,94723.38
2023-03-08T00:45:16.536Z,94723.50
2023-03-08T00:46:21.443Z,94714.19
2023-03-08T00:47:23.478Z,94721.34
2023-03-08T00:48:28.420Z,94717.94
2023-03-08T00:49:30.740Z,94722.47
2023-03-08T00:50:35.842Z,94716.16
2023-03-08T00:51:40.559Z,94720.63
2023-03-08T00:52:42.878Z,94726.63
2023-03-08T00:53:47.792Z,94719.91
2023-03-08T00:54:49.888Z,94722.34
2023-03-08T00:55:56.466Z,94719.91
2023-03-08T00:56:58.542Z,94719.00
2023-03-08T00:58:03.256Z,94719.75
2023-03-08T00:59:07.952Z,94722.56
2023-03-08T01:00:15.297Z,94725.16
2023-03-08T01:01:19.424Z,94723.31
2023-03-08T01:02:24.092Z,94721.34
2023-03-08T01:03:26.532Z,94711.94
2023-03-08T01:04:31.153Z,94715.38
2023-03-08T01:05:33.219Z,94717.94
2023-03-08T01:06:37.812Z,94714.75
2023-03-08T01:07:40.141Z,94702.91
2023-03-08T01:08:45.290Z,94710.63
2023-03-08T01:09:47.486Z,94703.91
2023-03-08T01:10:53.585Z,94705.00
2023-03-08T01:11:55.573Z,94698.38
2023-03-08T01:13:00.173Z,94692.59
2023-03-08T01:14:02.321Z,94687.66
2023-03-08T01:15:10.826Z,94690.22
2023-03-08T01:16:17.715Z,94682.81
2023-03-08T01:17:22.737Z,94688.63
2023-03-08T01:18:25.313Z,94679.47
2023-03-08T01:19:29.923Z,94665.34
2023-03-08T01:20:32.493Z,94674.59
2023-03-08T01:21:37.190Z,94669.56
2023-03-08T01:22:39.261Z,94682.22
2023-03-08T01:23:43.926Z,94668.53
2023-03-08T01:26:40.645Z,94667.25
2023-03-08T01:27:42.713Z,94681.19
2023-03-08T01:28:48.130Z,94683.84
2023-03-08T01:29:50.206Z,94681.06
2023-03-08T01:30:57.611Z,94675.81
2023-03-08T01:31:59.705Z,94675.81
2023-03-08T01:33:04.382Z,94674.03
2023-03-08T01:34:06.468Z,94676.72
2023-03-08T01:35:12.434Z,94677.47
2023-03-08T01:36:16.096Z,94678.25
2023-03-08T01:37:20.917Z,94676.47
2023-03-08T01:38:23.772Z,94685.66
2023-03-08T01:39:28.507Z,94678.00
2023-03-08T01:40:30.648Z,94676.28
2023-03-08T01:41:35.423Z,94677.78
2023-03-08T01:42:39.146Z,94675.09
2023-03-08T01:43:43.861Z,94670.09
2023-03-08T01:44:51.018Z,94681.16
2023-03-08T01:46:20.142Z,94681.19
2023-03-08T01:47:24.770Z,94681.81
2023-03-08T01:48:35.536Z,94672.31
2023-03-08T01:49:37.839Z,94668.06
2023-03-08T01:50:43.959Z,94662.94
2023-03-08T01:51:54.662Z,94664.66
2023-03-08T01:52:58.946Z,94666.50
2023-03-08T01:54:07.936Z,94659.88
2023-03-08T01:55:12.487Z,94657.38
2023-03-08T01:56:21.658Z,94659.63
2023-03-08T01:57:27.045Z,94657.94
2023-03-08T01:58:32.142Z,94653.03
2023-03-08T01:59:38.257Z,94652.25
2023-03-08T02:00:40.331Z,94651.28
2023-03-08T02:01:48.343Z,94641.75
2023-03-08T02:02:53.452Z,94646.81
2023-03-08T02:03:58.171Z,94634.31
2023-03-08T02:05:00.238Z,94637.59
2023-03-08T02:06:05.999Z,94637.72
2023-03-08T02:07:08.063Z,94632.75
2023-03-08T02:08:13.272Z,94630.97
2023-03-08T02:09:15.431Z,94619.91
2023-03-08T02:10:21.862Z,94632.88
2023-03-08T02:11:25.747Z,94637.44
2023-03-08T02:12:30.613Z,94636.78
2023-03-08T02:13:32.839Z,94631.00
2023-03-08T02:14:37.851Z,94627.88
2023-03-08T02:15:40.018Z,94630.66
2023-03-08T02:16:47.326Z,94632.09
2023-03-08T02:17:49.450Z,94631.72
2023-03-08T02:18:59.967Z,94635.16
2023-03-08T02:20:08.450Z,94633.56
2023-03-08T02:21:13.096Z,94635.56
2023-03-08T02:22:16.841Z,94639.81
2023-03-08T02:23:25.988Z,94636.50
2023-03-08T02:24:27.993Z,94641.63
2023-03-08T02:25:33.007Z,94639.09
2023-03-08T02:26:37.530Z,94640.13
2023-03-08T02:27:42.215Z,94639.34
2023-03-08T02:28:44.992Z,94641.13
2023-03-08T02:29:50.055Z,94645.41
2023-03-08T02:30:52.387Z,94639.47
2023-03-08T02:31:57.029Z,94640.19
2023-03-08T02:32:59.054Z,94647.03
2023-03-08T02:34:03.735Z,94638.66
2023-03-08T02:35:06.570Z,94638.56
2023-03-08T02:36:12.373Z,94635.19
2023-03-08T02:37:14.476Z,94630.22
2023-03-08T02:38:21.122Z,94626.75
2023-03-08T02:39:25.734Z,94632.50
2023-03-08T02:40:30.480Z,94626.44
2023-03-08T02:41:32.539Z,94628.22
2023-03-08T02:42:37.131Z,94623.84
2023-03-08T02:43:39.311Z,94621.22
2023-03-08T02:44:44.022Z,94616.19
2023-03-08T02:45:46.647Z,94615.31
2023-03-08T02:46:51.457Z,94607.75
2023-03-08T02:47:53.610Z,94604.34
2023-03-08T02:48:58.303Z,94605.34
2023-03-08T02:50:00.400Z,94594.44
2023-03-08T02:51:05.089Z,94597.13
2023-03-08T02:52:07.547Z,94597.25
2023-03-08T02:53:12.618Z,94598.91
2023-03-08T02:54:16.831Z,94602.28
2023-03-08T02:55:24.370Z,94601.28
2023-03-08T02:56:26.385Z,94609.75
2023-03-08T02:57:31.028Z,94604.34
2023-03-08T02:58:33.092Z,94604.22
2023-03-08T02:59:37.707Z,94602.63
2023-03-08T03:00:39.822Z,94601.84
2023-03-08T03:01:44.441Z,94605.22
2023-03-08T03:02:46.649Z,94606.00
2023-03-08T03:03:51.253Z,94596.44
2023-03-08T03:04:53.328Z,94601.41
2023-03-08T03:05:58.110Z,94594.53
2023-03-08T03:07:00.942Z,94588.38
2023-03-08T03:08:05.540Z,94591.06
2023-03-08T03:09:08.781Z,94594.53
2023-03-08T03:10:16.511Z,94589.53
2023-03-08T03:11:22.668Z,94585.19
2023-03-08T03:12:27.319Z,94584.31
2023-03-08T03:13:29.421Z,94590.38
2023-03-08T03:14:34.181Z,94586.09
2023-03-08T03:15:38.513Z,94587.50
2023-03-08T03:16:43.431Z,94587.50
2023-03-08T03:17:45.560Z,94585.69
2023-03-08T03:18:50.185Z,94582.28
2023-03-08T03:19:52.200Z,94579.75
2023-03-08T03:20:56.777Z,94580.59
2023-03-08T03:21:58.793Z,94579.59
2023-03-08T03:23:03.434Z,94585.56
2023-03-08T03:24:05.990Z,94579.75
2023-03-08T03:25:11.629Z,94580.47
2023-03-08T03:26:15.701Z,94575.47
2023-03-08T03:27:23.271Z,94567.53
2023-03-08T03:28:27.851Z,94565.06
2023-03-08T03:29:29.902Z,94561.81
2023-03-08T03:30:34.564Z,94569.63
2023-03-08T03:31:36.729Z,94568.72
2023-03-08T03:32:41.369Z,94565.13
2023-03-08T03:33:44.104Z,94569.09
2023-03-08T03:34:50.232Z,94563.22
2023-03-08T03:35:52.383Z,94563.97
2023-03-08T03:36:57.005Z,94564.13
2023-03-08T03:37:59.063Z,94556.50
2023-03-08T03:39:03.762Z,94546.84
2023-03-08T03:40:07.192Z,94553.75
2023-03-08T03:41:13.989Z,94546.13
2023-03-08T03:42:23.041Z,94554.03
2023-03-08T03:43:25.025Z,94541.16
2023-03-08T03:44:31.969Z,94541.09
2023-03-08T03:45:33.994Z,94548.69
2023-03-08T03:46:38.684Z,94543.66
2023-03-08T03:47:40.700Z,94548.78
2023-03-08T03:48:45.762Z,94538.41
2023-03-08T03:49:47.826Z,94544.03
2023-03-08T03:50:57.628Z,94537.31
2023-03-08T03:51:59.698Z,94536.69
2023-03-08T03:53:04.367Z,94543.66
2023-03-08T03:54:07.462Z,94535.16
2023-03-08T03:55:12.929Z,94533.56
2023-03-08T03:56:17.267Z,94534.44
2023-03-08T03:57:25.480Z,94543.03
2023-03-08T03:58:27.523Z,94537.22
2023-03-08T03:59:34.120Z,94533.75
2023-03-08T04:00:36.149Z,94535.53
2023-03-08T04:01:41.116Z,94529.59
2023-03-08T04:02:43.272Z,94530.78
2023-03-08T04:03:48.036Z,94521.56
2023-03-08T04:04:50.760Z,94516.56
2023-03-08T04:05:55.951Z,94518.22
2023-03-08T04:06:58.079Z,94516.69
2023-03-08T04:08:02.699Z,94521.38
2023-03-08T04:09:06.707Z,94515.63
2023-03-08T04:10:11.797Z,94519.94
2023-03-08T04:11:15.725Z,94514.84
2023-03-08T04:12:20.394Z,94513.06
2023-03-08T04:13:25.089Z,94508.25
2023-03-08T04:14:29.727Z,94515.19
2023-03-08T04:15:31.895Z,94514.72
2023-03-08T04:16:37.834Z,94520.91
2023-03-08T04:17:40.093Z,94518.53
2023-03-08T04:18:45.604Z,94508.31
2023-03-08T04:19:49.277Z,94510.03
2023-03-08T04:20:53.927Z,94509.16
2023-03-08T04:21:55.959Z,94504.88
2023-03-08T04:23:00.662Z,94502.38
2023-03-08T04:24:03.029Z,94504.28
2023-03-08T04:25:08.743Z,94498.34
2023-03-08T04:26:10.925Z,94500.88
2023-03-08T04:27:15.642Z,94495.63
2023-03-08T04:28:17.642Z,94496.63
2023-03-08T04:29:24.982Z,94491.78
2023-03-08T04:30:27.033Z,94489.34
2023-03-08T04:31:32.789Z,94486.91
2023-03-08T04:32:35.370Z,94480.91
2023-03-08T04:33:40.058Z,94477.75
2023-03-08T04:34:43.125Z,94487.09
2023-03-08T04:35:47.889Z,94477.22
2023-03-08T04:36:52.585Z,94479.13
2023-03-08T04:37:54.659Z,94477.38
2023-03-08T04:38:59.533Z,94479.78
2023-03-08T04:40:01.607Z,94479.78
2023-03-08T04:41:05.568Z,94471.47
2023-03-08T04:42:10.763Z,94477.50
2023-03-08T04:43:13.093Z,94481.66
2023-03-08T04:44:17.750Z,94479.78
2023-03-08T04:45:22.529Z,94479.63
2023-03-08T04:46:29.828Z,94481.28
2023-03-08T04:47:31.838Z,94486.28
2023-03-08T04:48:36.944Z,94488.25
2023-03-08T04:49:38.990Z,94480.31
2023-03-08T04:50:43.909Z,94479.03
2023-03-08T04:51:48.733Z,94471.97
2023-03-08T04:52:50.810Z,94476.91
2023-03-08T04:53:55.466Z,94477.59
2023-03-08T04:54:57.717Z,94474.16
2023-03-08T04:56:02.932Z,94468.97
2023-03-08T04:57:05.173Z,94475.69
2023-03-08T04:58:09.816Z,94472.22
2023-03-08T04:59:11.868Z,94472.88
2023-03-08T05:00:17.438Z,94481.44
2023-03-08T05:01:25.912Z,94474.53
2023-03-08T05:02:28.111Z,94475.38
2023-03-08T05:03:32.785Z,94475.41
2023-03-08T05:04:35.042Z,94477.22
2023-03-08T05:05:39.879Z,94461.97
2023-03-08T05:06:41.885Z,94475.69
2023-03-08T05:07:46.546Z,94472.34
2023-03-08T05:08:51.177Z,94468.16
2023-03-08T05:09:53.150Z,94466.50
2023-03-08T05:11:01.172Z,94457.28
2023-03-08T05:12:03.760Z,94462.41
2023-03-08T05:13:08.432Z,94452.19
2023-03-08T05:14:10.562Z,94453.97
2023-03-08T05:15:15.238Z,94449.72
2023-03-08T05:16:17.466Z,94448.84
2023-03-08T05:17:24.941Z,94443.75
2023-03-08T05:18:27.093Z,94459.06
2023-03-08T05:19:31.831Z,94435.97
2023-03-08T05:20:33.869Z,94441.09
2023-03-08T05:21:38.523Z,94442.78
2023-03-08T05:22:56.648Z,94439.53
2023-03-08T05:24:03.487Z,94429.28
2023-03-08T05:25:06.377Z,94429.31
2023-03-08T05:26:13.540Z,94431.09
2023-03-08T05:27:15.621Z,94426.91
2023-03-08T05:28:20.265Z,94424.41
2023-03-08T05:29:23.209Z,94428.56
2023-03-08T05:30:27.950Z,94424.41
2023-03-08T05:31:30.134Z,94430.09
2023-03-08T05:32:37.482Z,94422.22
2023-03-08T05:33:40.214Z,94423.06
2023-03-08T05:34:44.953Z,94424.59
2023-03-08T05:35:54.502Z,94417.09
2023-03-08T05:36:59.973Z,94421.34
2023-03-08T05:38:02.094Z,94421.25
2023-03-08T05:39:07.058Z,94414.44
2023-03-08T05:40:10.979Z,94420.44
2023-03-08T05:41:17.484Z,94417.06
2023-03-08T05:42:20.539Z,94417.19
2023-03-08T05:43:25.196Z,94418.91
2023-03-08T05:44:27.397Z,94417.25
2023-03-08T05:45:32.330Z,94408.69
2023-03-08T05:46:34.539Z,94413.69
2023-03-08T05:47:41.824Z,94408.56
2023-03-08T05:48:44.556Z,94414.44
2023-03-08T05:49:49.316Z,94423.56
2023-03-08T05:50:51.389Z,94421.00
2023-03-08T05:51:56.121Z,94422.66
2023-03-08T05:52:58.131Z,94421.69
2023-03-08T05:54:02.792Z,94411.41
2023-03-08T05:55:05.856Z,94424.19
2023-03-08T05:56:12.397Z,94425.78
2023-03-08T05:57:14.400Z,94428.28
2023-03-08T05:58:19.297Z,94425.72
2023-03-08T05:59:21.486Z,94425.84
2023-03-08T06:00:27.377Z,94419.84
2023-03-08T06:01:29.650Z,94425.72
2023-03-08T06:02:34.316Z,94423.22
2023-03-08T06:03:39.090Z,94422.38
2023-03-08T06:04:43.923Z,94425.84
2023-03-08T06:05:45.941Z,94419.97
2023-03-08T06:06:50.604Z,94418.25
2023-03-08T06:07:52.589Z,94416.59
2023-03-08T06:08:57.280Z,94411.25
2023-03-08T06:09:59.376Z,94412.66
2023-03-08T06:11:04.016Z,94413.28
2023-03-08T06:12:07.010Z,94413.44
2023-03-08T06:13:11.584Z,94418.25
2023-03-08T06:14:13.611Z,94413.00
2023-03-08T06:15:18.550Z,94413.69
2023-03-08T06:16:20.679Z,94420.13
2023-03-08T06:17:25.373Z,94410.59
2023-03-08T06:18:28.232Z,94408.09
2023-03-08T06:19:35.699Z,94405.78
2023-03-08T06:20:37.817Z,94404.25
2023-03-08T06:21:42.446Z,94409.44
2023-03-08T06:22:44.662Z,94402.66
2023-03-08T06:23:49.876Z,94401.00
2023-03-08T06:24:55.045Z,94404.31
2023-03-08T06:26:00.224Z,94409.31
2023-03-08T06:27:02.276Z,94400.72
2023-03-08T06:28:07.168Z,94396.22
2023-03-08T06:29:09.225Z,94397.69
2023-03-08T06:30:15.012Z,94397.00
2023-03-08T06:31:18.859Z,94389.03
2023-03-08T06:32:23.859Z,94387.50
2023-03-08T06:33:28.672Z,94392.84
2023-03-08T06:34:36.113Z,94393.06
2023-03-08T06:35:40.796Z,94394.97
2023-03-08T06:36:43.411Z,94401.81
2023-03-08T06:37:48.159Z,94395.22
2023-03-08T06:38:53.309Z,94394.22
2023-03-08T06:39:56.197Z,94396.03
2023-03-08T06:41:01.366Z,94398.59
2023-03-08T06:42:03.439Z,94392.66
2023-03-08T06:43:08.145Z,94394.22
2023-03-08T06:44:13.275Z,94387.44
2023-03-08T06:45:18.040Z,94392.56
2023-03-08T06:46:20.390Z,94388.28
2023-03-08T06:47:25.394Z,94385.66
2023-03-08T06:48:27.432Z,94385.38
2023-03-08T06:49:32.220Z,94383.03
2023-03-08T06:50:36.979Z,94386.25
2023-03-08T06:51:41.676Z,94372.50
2023-03-08T06:52:43.927Z,94376.44
2023-03-08T06:53:48.928Z,94372.69
2023-03-08T06:54:51.077Z,94365.84
2023-03-08T06:55:55.945Z,94368.28
2023-03-08T06:56:57.958Z,94368.34
2023-03-08T06:58:02.598Z,94369.84
2023-03-08T06:59:04.622Z,94366.69
2023-03-08T07:00:13.775Z,94367.81
2023-03-08T07:01:18.522Z,94370.50
2023-03-08T07:02:20.575Z,94365.00
2023-03-08T07:03:25.835Z,94362.91
2023-03-08T07:04:28.037Z,94360.81
2023-03-08T07:05:32.773Z,94362.75
2023-03-08T07:06:37.351Z,94352.41
2023-03-08T07:07:41.963Z,94350.44
2023-03-08T07:08:44.223Z,94344.59
2023-03-08T07:09:48.924Z,94347.00
2023-03-08T07:10:51.024Z,94343.38
2023-03-08T07:11:55.777Z,94347.97
2023-03-08T07:12:57.911Z,94352.94
2023-03-08T07:14:02.623Z,94350.44
2023-03-08T07:15:05.936Z,94349.78
2023-03-08T07:16:12.574Z,94340.16
2023-03-08T07:17:17.237Z,94331.94
2023-03-08T07:18:21.505Z,94334.06
2023-03-08T07:19:26.676Z,94336.75
2023-03-08T07:20:28.773Z,94335.78
2023-03-08T07:21:33.582Z,94330.72
2023-03-08T07:22:38.433Z,94324.56
2023-03-08T07:23:43.089Z,94320.50
2023-03-08T07:24:50.356Z,94315.22
2023-03-08T07:25:52.388Z,94303.28
2023-03-08T07:26:57.030Z,94301.22
2023-03-08T07:27:59.360Z,94303.25
2023-03-08T07:29:03.990Z,94299.72
2023-03-08T07:30:11.414Z,94296.06
2023-03-08T07:31:13.650Z,94296.91
2023-03-08T07:32:18.508Z,94293.19
2023-03-08T07:33:21.442Z,94296.78
2023-03-08T07:34:26.027Z,94289.69
2023-03-08T07:35:28.123Z,94289.47
2023-03-08T07:36:32.880Z,94301.88
2023-03-08T07:37:37.928Z,94301.47
2023-03-08T07:38:42.656Z,94307.25
2023-03-08T07:39:44.780Z,94305.38
2023-03-08T07:40:56.365Z,94306.88
2023-03-08T07:42:01.019Z,94305.22
2023-03-08T07:43:06.458Z,94306.94
2023-03-08T07:44:11.294Z,94304.38
2023-03-08T07:45:14.413Z,94309.38
2023-03-08T07:46:19.059Z,94303.22
2023-03-08T07:47:21.953Z,94315.03
2023-03-08T07:48:26.610Z,94311.66
2023-03-08T07:49:28.950Z,94312.81
2023-03-08T07:50:33.729Z,94305.28
2023-03-08T07:51:38.479Z,94301.81
2023-03-08T07:52:43.118Z,94295.78
2023-03-08T07:53:47.904Z,94301.09
2023-03-08T07:54:50.032Z,94305.22
2023-03-08T07:55:54.737Z,94300.75
2023-03-08T07:56:59.494Z,94302.22
2023-03-08T07:58:01.528Z,94287.59
2023-03-08T07:59:06.242Z,94287.59
2023-03-08T08:00:09.829Z,94290.00
2023-03-08T08:01:15.916Z,94277.78
2023-03-08T08:02:18.128Z,94277.28
2023-03-08T08:03:22.840Z,94285.69
2023-03-08T08:04:24.902Z,94283.22
2023-03-08T08:05:29.734Z,94285.69
2023-03-08T08:06:31.877Z,94278.00
2023-03-08T08:07:36.612Z,94271.00
2023-03-08T08:08:43.847Z,94265.78
2023-03-08T08:09:45.951Z,94267.28
2023-03-08T08:10:50.601Z,94271.34
2023-03-08T08:11:52.592Z,94267.84
2023-03-08T08:12:57.206Z,94265.69
2023-03-08T08:13:59.300Z,94263.72
2023-03-08T08:15:04.091Z,94262.88
2023-03-08T08:16:10.021Z,94266.28
2023-03-08T08:17:12.085Z,94264.88
2023-03-08T08:18:17.094Z,94267.81
2023-03-08T08:19:21.675Z,94258.97
2023-03-08T08:20:26.959Z,94253.63
2023-03-08T08:21:31.584Z,94256.09
2023-03-08T08:22:35.667Z,94257.75
2023-03-08T08:23:43.588Z,94249.19
2023-03-08T08:24:48.403Z,94251.75
2023-03-08T08:27:45.114Z,94240.53
2023-03-08T08:28:52.636Z,94233.75
2023-03-08T08:29:57.266Z,94219.03
2023-03-08T08:31:00.732Z,94223.03
2023-03-08T08:32:06.364Z,94223.44
2023-03-08T08:33:10.981Z,94219.16
2023-03-08T08:34:15.622Z,94214.94
2023-03-08T08:35:20.598Z,94210.78
2023-03-08T08:36:23.114Z,94208.13
2023-03-08T08:37:27.845Z,94201.56
2023-03-08T08:38:32.554Z,94191.81
2023-03-08T08:39:40.505Z,94202.00
2023-03-08T08:40:42.576Z,94194.53
2023-03-08T08:41:47.393Z,94195.44
2023-03-08T08:42:49.653Z,94194.94
2023-03-08T08:43:56.785Z,94193.41
2023-03-08T08:45:01.438Z,94187.94
2023-03-08T08:46:04.980Z,94185.84
2023-03-08T08:47:09.657Z,94181.63
2023-03-08T08:48:11.831Z,94179.06
2023-03-08T08:49:16.449Z,94180.56
2023-03-08T08:50:21.525Z,94174.50
2023-03-08T08:51:26.195Z,94168.44
2023-03-08T08:52:28.232Z,94167.78
2023-03-08T08:53:32.958Z,94162.09
2023-03-08T08:54:41.105Z,94153.94
2023-03-08T08:55:45.207Z,94149.88
2023-03-08T08:56:50.393Z,94150.06
2023-03-08T08:57:52.481Z,94150.25
2023-03-08T08:58:57.639Z,94143.47
2023-03-08T09:00:02.279Z,94140.09
2023-03-08T09:01:04.838Z,94141.47
2023-03-08T09:02:10.069Z,94129.09
2023-03-08T09:03:12.339Z,94128.91
2023-03-08T09:04:17.483Z,94124.53
2023-03-08T09:05:20.491Z,94122.44
2023-03-08T09:06:26.935Z,94124.63
2023-03-08T09:07:31.648Z,94121.34
2023-03-08T09:08:33.777Z,94113.84
2023-03-08T09:09:42.272Z,94109.44
2023-03-08T09:10:46.939Z,94112.81
2023-03-08T09:11:55.569Z,94117.31
2023-03-08T09:12:59.267Z,94120.06
2023-03-08T09:14:05.541Z,94110.47
2023-03-08T09:15:12.260Z,94109.19
2023-03-08T09:16:21.803Z,94107.34
2023-03-08T09:17:26.529Z,94113.03
2023-03-08T09:18:28.636Z,94113.53
2023-03-08T09:19:33.312Z,94113.34
2023-03-08T09:20:35.355Z,94106.19
2023-03-08T09:21:40.056Z,94101.97
2023-03-08T09:22:42.211Z,94104.69
2023-03-08T09:23:47.439Z,94104.97
2023-03-08T09:24:55.494Z,94111.13
2023-03-08T09:25:59.478Z,94111.94
2023-03-08T09:27:07.811Z,94114.53
2023-03-08T09:28:11.303Z,94108.66
2023-03-08T09:29:16.281Z,94113.78
2023-03-08T09:30:18.995Z,94105.16
2023-03-08T09:31:24.056Z,94099.91
2023-03-08T09:32:29.519Z,94100.78
2023-03-08T09:33:31.567Z,94102.97
2023-03-08T09:34:36.280Z,94092.97
2023-03-08T09:35:38.381Z,94091.88
2023-03-08T09:36:43.441Z,94090.88
2023-03-08T09:37:45.426Z,94092.16
2023-03-08T09:38:50.597Z,94088.81
2023-03-08T09:39:55.206Z,94091.63
2023-03-08T09:41:13.430Z,94086.28
2023-03-08T09:42:23.726Z,94084.28
2023-03-08T09:43:40.549Z,94092.19
2023-03-08T09:44:57.429Z,94074.38
2023-03-08T09:46:02.088Z,94083.09
2023-03-08T09:48:35.498Z,94081.66
2023-03-08T09:49:39.195Z,94083.03
2023-03-08T09:50:48.251Z,94079.47
2023-03-08T09:52:00.936Z,94075.88
2023-03-08T09:53:10.451Z,94073.31
2023-03-08T09:54:17.476Z,94071.09
2023-03-08T09:55:30.608Z,94073.22
2023-03-08T09:56:41.267Z,94072.84
2023-03-08T09:57:56.304Z,94052.97
2023-03-08T09:59:02.182Z,94034.63
2023-03-08T10:00:12.131Z,94064.16
2023-03-08T10:01:27.404Z,94069.19
2023-03-08T10:02:39.077Z,94062.50
2023-03-08T10:03:52.823Z,94041.50
2023-03-08T10:05:13.214Z,94024.19
2023-03-08T10:06:24.485Z,94018.13
2023-03-08T10:07:38.550Z,94022.69
2023-03-08T10:08:52.606Z,94078.72
2023-03-08T10:10:09.804Z,94084.41
2023-03-08T10:11:24.036Z,94079.09
2023-03-08T10:12:35.723Z,94066.91
2023-03-08T10:13:42.977Z,94041.41
2023-03-08T10:14:49.402Z,94039.22
2023-03-08T10:15:57.723Z,94032.41
2023-03-08T10:17:06.132Z,94029.13
2023-03-08T10:18:16.853Z,94035.84
2023-03-08T10:19:26.550Z,94040.66
2023-03-08T10:20:34.418Z,94025.81
2023-03-08T10:21:41.989Z,94016.47
2023-03-08T10:22:58.870Z,94023.25
2023-03-08T10:24:05.541Z,94021.13
2023-03-08T10:25:22.395Z,94026.00
2023-03-08T10:26:30.661Z,94021.41
2023-03-08T10:27:37.524Z,94024.78
2023-03-08T10:28:42.513Z,94026.41
2023-03-08T10:29:52.353Z,94019.47
2023-03-08T10:30:59.926Z,94022.84
2023-03-08T10:32:02.343Z,94014.94
2023-03-08T10:33:14.668Z,94016.63
2023-03-08T10:34:20.947Z,94017.25
2023-03-08T10:35:36.577Z,94016.22
2023-03-08T10:36:51.413Z,94019.53
2023-03-08T10:37:56.017Z,94011.91
2023-03-08T10:39:05.120Z,94027.78
2023-03-08T10:40:13.926Z,94022.53
2023-03-08T10:41:17.366Z,94015.25
2023-03-08T10:42:27.552Z,94015.16
2023-03-08T10:43:32.139Z,94008.47
2023-03-08T10:44:41.250Z,94018.47
2023-03-08T10:45:43.426Z,94013.03
2023-03-08T10:46:53.154Z,94011.31
2023-03-08T10:48:00.724Z,94014.50
2023-03-08T10:49:10.514Z,94013.91
2023-03-08T10:50:19.833Z,94012.25
2023-03-08T10:51:23.931Z,94009.69
2023-03-08T10:52:30.791Z,94011.25
2023-03-08T10:53:33.759Z,94007.75
2023-03-08T10:54:38.512Z,94003.41
2023-03-08T10:55:48.764Z,94002.75
2023-03-08T10:56:59.756Z,94009.84
2023-03-08T10:58:07.058Z,93999.56
2023-03-08T10:59:27.713Z,93994.66
2023-03-08T11:00:37.580Z,94001.75
2023-03-08T11:01:49.388Z,94005.56
2023-03-08T11:03:05.560Z,94004.22
2023-03-08T11:04:18.258Z,94005.47
2023-03-08T11:05:22.813Z,94004.13
2023-03-08T11:06:28.717Z,93991.78
2023-03-08T11:07:32.966Z,93999.59
2023-03-08T11:08:39.817Z,93996.28
2023-03-08T11:09:41.888Z,93995.06
2023-03-08T11:10:46.601Z,94002.50
2023-03-08T11:11:51.383Z,94000.25
2023-03-08T11:13:15.680Z,93997.25
2023-03-08T11:14:20.631Z,93997.06
2023-03-08T11:15:22.644Z,93990.97
2023-03-08T11:16:45.989Z,93994.06
2023-03-08T11:17:58.269Z,93992.53
2023-03-08T11:19:11.286Z,93989.03
2023-03-08T11:20:21.298Z,93983.28
2023-03-08T11:21:30.111Z,93995.00
2023-03-08T11:22:52.923Z,93991.78
2023-03-08T11:24:09.699Z,93983.56
2023-03-08T11:25:32.611Z,93987.84
2023-03-08T11:26:47.309Z,93976.13
2023-03-08T11:28:15.821Z,93961.88
2023-03-08T11:29:30.761Z,93983.50
2023-03-08T11:30:52.625Z,93993.13
2023-03-08T11:32:03.740Z,93991.50
2023-03-08T11:33:32.749Z,93985.97
2023-03-08T11:34:56.256Z,93962.25
2023-03-08T11:36:05.659Z,93978.91
2023-03-08T11:37:19.145Z,93979.81
2023-03-08T11:38:27.819Z,93987.81
2023-03-08T11:39:33.538Z,93974.81
2023-03-08T11:41:00.936Z,93982.06
2023-03-08T11:42:12.483Z,93976.69
2023-03-08T11:43:25.597Z,93964.88
2023-03-08T11:44:44.287Z,93965.31
2023-03-08T11:46:01.335Z,93967.00
2023-03-08T11:47:40.596Z,93960.69
2023-03-08T11:49:17.348Z,93972.53
2023-03-08T11:50:23.617Z,93967.50
2023-03-08T11:51:35.471Z,93962.56
2023-03-08T11:52:46.336Z,93973.22
2023-03-08T11:54:02.063Z,93970.50
2023-03-08T11:55:20.698Z,93975.19
2023-03-08T11:56:40.625Z,93965.53
2023-03-08T11:57:47.140Z,93964.72
2023-03-08T12:00:49.689Z,93970.38
2023-03-08T12:01:57.118Z,93965.38
2023-03-08T12:03:06.266Z,93961.38
2023-03-08T12:04:13.897Z,93960.22
2023-03-08T12:05:30.041Z,93958.78
2023-03-08T12:06:43.987Z,93980.97
2023-03-08T12:07:56.042Z,93962.31
2023-03-08T12:09:04.922Z,93958.00
2023-03-08T12:10:21.903Z,93965.16
2023-03-08T12:11:28.193Z,93968.78
2023-03-08T12:12:37.971Z,93973.38
2023-03-08T12:13:44.460Z,93968.56
2023-03-08T12:14:59.591Z,93965.97
2023-03-08T12:16:12.334Z,93965.16
2023-03-08T12:17:23.335Z,93958.94
2023-03-08T12:18:49.530Z,93963.06
2023-03-08T12:19:54.409Z,93956.59
2023-03-08T12:21:08.735Z,93962.22
2023-03-08T12:22:39.425Z,93954.94
2023-03-08T12:23:51.993Z,93957.41
2023-03-08T12:25:29.758Z,93961.28
2023-03-08T12:26:50.700Z,93953.78
2023-03-08T12:28:07.277Z,93954.03
2023-03-08T12:29:23.581Z,93949.44
2023-03-08T12:30:52.243Z,93949.75
2023-03-08T12:32:01.742Z,93951.78
2023-03-08T12:33:27.962Z,93971.03
2023-03-08T12:34:41.238Z,93967.75
2023-03-08T12:35:57.237Z,93971.72
2023-03-08T12:37:04.227Z,93959.47
2023-03-08T12:40:00.933Z,93960.53
2023-03-08T12:41:04.390Z,93949.25
2023-03-08T12:42:22.018Z,93951.34
2023-03-08T12:43:35.573Z,93945.94
2023-03-08T12:44:41.643Z,93960.38
2023-03-08T12:45:53.260Z,93960.72
2023-03-08T12:47:03.415Z,93957.63
2023-03-08T12:48:20.932Z,93959.97
2023-03-08T12:49:36.345Z,93953.84
2023-03-08T12:50:44.719Z,93952.63
2023-03-08T12:52:00.403Z,93947.34
2023-03-08T12:53:02.716Z,93950.59
2023-03-08T12:54:08.335Z,93961.53
2023-03-08T12:55:27.261Z,93953.03
2023-03-08T12:56:35.662Z,93952.31
2023-03-08T12:57:48.288Z,93942.19
2023-03-08T12:58:54.006Z,93949.94
2023-03-08T13:00:02.166Z,93962.38
2023-03-08T13:01:41.350Z,93964.28
2023-03-08T13:03:07.849Z,93954.72
2023-03-08T13:04:41.051Z,93953.66
2023-03-08T13:05:50.429Z,93962.50
2023-03-08T13:07:25.771Z,93964.94